Mokshan, Russia
Current Conditions -  °F | °C
As of 11:00 PM on Monday 24 Nov 2014 (Local Time) from UWSS Reporting Station
Clear Clear  
Wind Chill:   Ceiling: Unl
Heat Index: 14°   Visibility: 6mi
Dew Point:   Wind: 9mph
Humidity: 79%   Direction: 170°S
Pressure: 30.8"   Gusts: NA
Location:  53.44°N, 44.62°E
Report Text: UWSS 242000Z 17004MPS CAVOK M10/M13 Q1043 120///60 NOSIG RMKQFE770
Loading
Personal Weather Stations






























Interactive Weather Map New forecast layout! Learn more

10-Day Weather Forecast

Advertisements
Track Severe Weather on mobile